White Mary — HOHY — position and weather

sailwx.info

Track history (hours):
 
Tides and Currents Weather Stations Pressure Air Temp Water Temp Dewpoint Dewpoint Depression Visibility Wind Speed Wind Dir Waves Ship Positions

White Mary

Last reported at 2018-Feb-16 20:57 UTC. Time now 2018-Feb-21 21:27 UTC.
Position N 34°04' E 138°17'.

Length 110 m; draft 5.7 m.

Type: Cargo ship. MMSI: 370220000.

Date/timePositionNaut miles runAvg speedWind from/ knotsBaromVisibWave heightAir tempDewpointWater temp
2018-Feb-16 20:57N 34°04' E 138°17'5 8.7
2018-Feb-16 20:25N 34°07' E 138°21'5 8.7
2018-Feb-16 19:53N 34°10' E 138°26'5 8.6
2018-Feb-16 19:15N 34°13' E 138°31'2 8.7
2018-Feb-16 19:00N 34°14' E 138°33'5 8.8
2018-Feb-16 18:28N 34°17' E 138°37'4 8.7
2018-Feb-16 17:58N 34°20' E 138°41'4 8.8
2018-Feb-16 17:30N 34°22' E 138°45'5 8.8
2018-Feb-16 16:56N 34°26' E 138°50'4 8.3
2018-Feb-16 16:30N 34°27' E 138°54'4 8.3
2018-Feb-16 16:00N 34°29' E 138°58'4 8.3
2018-Feb-16 15:30N 34°33' E 139°01'4 8.0
2018-Feb-16 14:59N 34°36' E 139°04'4 8.5
2018-Feb-16 14:30N 34°40' E 139°06'6 8.8
2018-Feb-16 13:53N 34°44' E 139°10'4 8.9
2018-Feb-16 13:29N 34°47' E 139°13'4 9.3
2018-Feb-16 13:00N 34°50' E 139°16'5 9.3
2018-Feb-16 12:29N 34°54' E 139°21'5 9.4
2018-Feb-16 12:00N 34°56' E 139°25'4 9.0
2018-Feb-16 11:30N 34°59' E 139°30'5 9.2
2018-Feb-16 11:00N 35°01' E 139°34'510.8
2018-Feb-16 10:30N 35°04' E 139°40'510.9
2018-Feb-16 10:00N 35°08' E 139°44'611.4
2018-Feb-16 09:30N 35°14' E 139°46'510.6
2018-Feb-16 09:00N 35°18' E 139°43'510.3
2018-Feb-16 08:29N 35°24' E 139°43'4 8.4
2018-Feb-16 08:00N 35°28' E 139°42'0 0.5
2018-Feb-16 07:28N 35°28' E 139°42'0 0.0
2018-Feb-16 06:58N 35°28' E 139°42'0 0.0
2018-Feb-16 06:25N 35°28' E 139°42'0 0.0
2018-Feb-16 05:58N 35°28' E 139°42'0 0.0
2018-Feb-16 05:28N 35°28' E 139°42'0 0.0
2018-Feb-16 04:55N 35°28' E 139°42'0 0.0
2018-Feb-16 04:28N 35°28' E 139°42'0 0.0
2018-Feb-16 03:58N 35°28' E 139°42'0 0.0
2018-Feb-16 03:28N 35°28' E 139°42'0 0.0
2018-Feb-16 02:58N 35°28' E 139°42'0 0.0
2018-Feb-16 02:28N 35°28' E 139°42'0 0.0
2018-Feb-16 01:58N 35°28' E 139°42'0 0.0
2018-Feb-16 01:25N 35°28' E 139°42'0 0.0
2018-Feb-16 00:58N 35°28' E 139°42'0 0.0
2018-Feb-16 00:28N 35°28' E 139°42'0 0.0
2018-Feb-15 23:58N 35°28' E 139°42'0 0.0
2018-Feb-15 23:28N 35°28' E 139°42'0 0.1
2018-Feb-15 23:00N 35°28' E 139°42'1 2.3
2018-Feb-15 22:30N 35°27' E 139°43'2 4.6
2018-Feb-15 22:00N 35°26' E 139°45'3 5.5
2018-Feb-15 21:31N 35°23' E 139°46'3 5.6
2018-Feb-15 21:01N 35°20' E 139°44'3 5.0
2018-Feb-15 20:30N 35°18' E 139°45'3 6.3
2018-Feb-15 20:00N 35°15' E 139°47'3 6.2
2018-Feb-15 19:30N 35°12' E 139°47'3 6.9
2018-Feb-15 19:00N 35°09' E 139°47'510.2
2018-Feb-15 18:30N 35°04' E 139°44'510.5
2018-Feb-15 17:59N 35°00' E 139°39'510.2
2018-Feb-15 17:30N 34°57' E 139°34'611.5
2018-Feb-15 16:59N 34°54' E 139°28'1112.0
2018-Feb-15 16:02N 34°46' E 139°18'112.2
2018-Feb-15 15:59N 34°46' E 139°17'812.3
2018-Feb-15 15:22N 34°39' E 139°13'512.6
2018-Feb-15 15:01N 34°35' E 139°11'1012.4
2018-Feb-15 14:13N 34°26' E 139°06'312.3
2018-Feb-15 13:57N 34°23' E 139°04'1010.9
2018-Feb-15 13:01N 34°15' E 138°57'0 9.2
2018-Feb-15 13:00N 34°15' E 138°57'5 8.0
2018-Feb-15 12:23N 34°20' E 138°59'17 9.9
2018-Feb-15 10:38N 34°10' E 138°42'  
Track history (hours):
 
Tides and Currents Weather Stations Pressure Air Temp Water Temp Dewpoint Dewpoint Depression Visibility Wind Speed Wind Dir Waves Ship Positions

White Mary

Last reported at 2018-Feb-16 20:57 UTC. Time now 2018-Feb-21 21:27 UTC.
Position N 34°04' E 138°17'.

Length 110 m; draft 5.7 m.

Type: Cargo ship. MMSI: 370220000.

Date/timePositionNaut miles runAvg speedWind from/ knotsBaromVisibWave heightAir tempDewpointWater temp
2018-Feb-16 20:57N 34°04' E 138°17'5 8.7
2018-Feb-16 20:25N 34°07' E 138°21'5 8.7
2018-Feb-16 19:53N 34°10' E 138°26'5 8.6
2018-Feb-16 19:15N 34°13' E 138°31'2 8.7
2018-Feb-16 19:00N 34°14' E 138°33'5 8.8
2018-Feb-16 18:28N 34°17' E 138°37'4 8.7
2018-Feb-16 17:58N 34°20' E 138°41'4 8.8
2018-Feb-16 17:30N 34°22' E 138°45'5 8.8
2018-Feb-16 16:56N 34°26' E 138°50'4 8.3
2018-Feb-16 16:30N 34°27' E 138°54'4 8.3
2018-Feb-16 16:00N 34°29' E 138°58'4 8.3
2018-Feb-16 15:30N 34°33' E 139°01'4 8.0
2018-Feb-16 14:59N 34°36' E 139°04'4 8.5
2018-Feb-16 14:30N 34°40' E 139°06'6 8.8
2018-Feb-16 13:53N 34°44' E 139°10'4 8.9
2018-Feb-16 13:29N 34°47' E 139°13'4 9.3
2018-Feb-16 13:00N 34°50' E 139°16'5 9.3
2018-Feb-16 12:29N 34°54' E 139°21'5 9.4
2018-Feb-16 12:00N 34°56' E 139°25'4 9.0
2018-Feb-16 11:30N 34°59' E 139°30'5 9.2
2018-Feb-16 11:00N 35°01' E 139°34'510.8
2018-Feb-16 10:30N 35°04' E 139°40'510.9
2018-Feb-16 10:00N 35°08' E 139°44'611.4
2018-Feb-16 09:30N 35°14' E 139°46'510.6
2018-Feb-16 09:00N 35°18' E 139°43'510.3
2018-Feb-16 08:29N 35°24' E 139°43'4 8.4
2018-Feb-16 08:00N 35°28' E 139°42'0 0.5
2018-Feb-16 07:28N 35°28' E 139°42'0 0.0
2018-Feb-16 06:58N 35°28' E 139°42'0 0.0
2018-Feb-16 06:25N 35°28' E 139°42'0 0.0
2018-Feb-16 05:58N 35°28' E 139°42'0 0.0
2018-Feb-16 05:28N 35°28' E 139°42'0 0.0
2018-Feb-16 04:55N 35°28' E 139°42'0 0.0
2018-Feb-16 04:28N 35°28' E 139°42'0 0.0
2018-Feb-16 03:58N 35°28' E 139°42'0 0.0
2018-Feb-16 03:28N 35°28' E 139°42'0 0.0
2018-Feb-16 02:58N 35°28' E 139°42'0 0.0
2018-Feb-16 02:28N 35°28' E 139°42'0 0.0
2018-Feb-16 01:58N 35°28' E 139°42'0 0.0
2018-Feb-16 01:25N 35°28' E 139°42'0 0.0
2018-Feb-16 00:58N 35°28' E 139°42'0 0.0
2018-Feb-16 00:28N 35°28' E 139°42'0 0.0
2018-Feb-15 23:58N 35°28' E 139°42'0 0.0
2018-Feb-15 23:28N 35°28' E 139°42'0 0.1
2018-Feb-15 23:00N 35°28' E 139°42'1 2.3
2018-Feb-15 22:30N 35°27' E 139°43'2 4.6
2018-Feb-15 22:00N 35°26' E 139°45'3 5.5
2018-Feb-15 21:31N 35°23' E 139°46'3 5.6
2018-Feb-15 21:01N 35°20' E 139°44'3 5.0
2018-Feb-15 20:30N 35°18' E 139°45'3 6.3
2018-Feb-15 20:00N 35°15' E 139°47'3 6.2
2018-Feb-15 19:30N 35°12' E 139°47'3 6.9
2018-Feb-15 19:00N 35°09' E 139°47'510.2
2018-Feb-15 18:30N 35°04' E 139°44'510.5
2018-Feb-15 17:59N 35°00' E 139°39'510.2
2018-Feb-15 17:30N 34°57' E 139°34'611.5
2018-Feb-15 16:59N 34°54' E 139°28'1112.0
2018-Feb-15 16:02N 34°46' E 139°18'112.2
2018-Feb-15 15:59N 34°46' E 139°17'812.3
2018-Feb-15 15:22N 34°39' E 139°13'512.6
2018-Feb-15 15:01N 34°35' E 139°11'1012.4
2018-Feb-15 14:13N 34°26' E 139°06'312.3
2018-Feb-15 13:57N 34°23' E 139°04'1010.9
2018-Feb-15 13:01N 34°15' E 138°57'0 9.2
2018-Feb-15 13:00N 34°15' E 138°57'5 8.0
2018-Feb-15 12:23N 34°20' E 138°59'17 9.9
2018-Feb-15 10:38N 34°10' E 138°42'  

Dump ship's entire track history